Dorothy Ann — WDE8761 — position and weather

sailwx.info

Track history (hours):
 
Tides and Currents Weather Stations Pressure Air Temp Water Temp Dewpoint Dewpoint Depression Visibility Wind Speed Wind Dir Waves Ship Positions

Dorothy Ann

Owner: THE INTERLAKE STEAMSHIP COMPANY, Middleburg Heights, OH. More information available from US FCC via Universal Licensing System and Coast Guard Vessel Documentation Center.

Last reported at 2017-Aug-17 15:00 UTC. Time now 2017-Aug-17 15:40 UTC.
Position N 41°30' W 082°42'.

Length 215 m; draft 6.2 m.

Type: Cargo ship. MMSI: 367409260.

Wind from 210 at 12 knots

Barometer 1012.7 mb
Air temperature 26.1 ° C
Water temperature 27.9 ° C

Date/timePositionNaut miles runAvg speedWind from/ knotsBaromVisibWave heightAir tempDewpointWater temp
2017-Aug-17 15:00N 41°30' W 082°42'6 6.0 210 / 121012.7 26.1 27.9
2017-Aug-17 14:00N 41°36' W 082°42'9 9.0 200 / 121013.0 24.9 27.8
2017-Aug-17 13:00N 41°36' W 082°30'9 9.0 180 / 141013.4 23.9 27.1
2017-Aug-17 12:00N 41°36' W 082°18'9 9.0 170 / 151013.7 23.2 26.8
2017-Aug-17 11:00N 41°36' W 082°06'9 9.0 180 / 161014.0 22.9 26.9
2017-Aug-17 10:00N 41°36' W 081°54'1110.8 160 / 121014.4 22.8 26.9
2017-Aug-17 09:00N 41°30' W 081°42'0 0.0 160 / 161014.7 26.1 27.0
2017-Aug-17 08:00N 41°30' W 081°42'0 0.0 130 / 81015.4 21.6 29.2
2017-Aug-17 07:00N 41°30' W 081°42'0 0.0 180 / 41016.1 21.4 30.2
2017-Aug-17 06:00N 41°30' W 081°42'0 0.0 160 / 81016.4 21.8 28.6
2017-Aug-17 05:00N 41°30' W 081°42'0 0.0 160 / 61017.1 23.0 28.7
2017-Aug-17 04:00N 41°30' W 081°42'0 0.0 130 / 21017.1 23.2 29.4
2017-Aug-17 03:00N 41°30' W 081°42'0 0.0 150 / 41017.4 23.6 30.1
2017-Aug-17 02:00N 41°30' W 081°42'0 0.0 110 / 41017.8 24.8 29.6
2017-Aug-17 01:00N 41°30' W 081°42'0 0.0 090 / 81017.4 25.4 29.7
2017-Aug-17 00:00N 41°30' W 081°42'0 0.0 090 / 81017.1 26.4 29.7
2017-Aug-16 23:00N 41°30' W 081°42'0 0.0 030 / 81017.1 25.9 29.2
2017-Aug-16 22:00N 41°30' W 081°42'0 0.0 050 / 171017.1 23.2 28.1
2017-Aug-16 21:00N 41°30' W 081°42'0 0.0 050 / 181017.8 23.7 28.2
2017-Aug-16 20:00N 41°30' W 081°42'0 0.0 040 / 151018.1 23.5 28.3
2017-Aug-16 19:00N 41°30' W 081°42'0 0.0 050 / 141018.8 23.3 28.0
2017-Aug-16 18:00N 41°30' W 081°42'0 0.0 040 / 121019.1 23.0 27.7
2017-Aug-16 17:00N 41°30' W 081°42'0 0.0 020 / 111019.1 22.5 27.6
2017-Aug-16 16:00N 41°30' W 081°42'0 0.0 020 / 91019.5 22.3 27.5
2017-Aug-16 15:00N 41°30' W 081°42'0 0.0 020 / 61019.5 22.9 27.7
2017-Aug-16 14:00N 41°30' W 081°42'0 0.0 030 / 61019.8 22.0 27.4
2017-Aug-16 13:00N 41°30' W 081°42'0 0.0 090 / 41019.5 22.6 27.9
2017-Aug-16 12:00N 41°30' W 081°42'0 0.0 130 / 51019.5 21.5 29.0
2017-Aug-16 11:00N 41°30' W 081°42'0 0.0 170 / 21018.5 18.6 29.9
2017-Aug-16 10:00N 41°30' W 081°42'0 0.0 150 / 11018.1 18.1 29.7
2017-Aug-16 09:00N 41°30' W 081°42'0 0.0 130 / 11017.1 18.9 29.8
2017-Aug-16 08:00N 41°30' W 081°42'0 0.0 130 / 31017.1 19.1 29.7
2017-Aug-16 07:00N 41°30' W 081°42'0 0.0 180 / 11017.1 20.0 29.5
2017-Aug-16 06:00N 41°30' W 081°42'0 0.0 120 / 31016.8 21.5 29.2
2017-Aug-16 05:00N 41°30' W 081°42'0 0.0 100 / 21016.8 22.2 29.0
2017-Aug-16 04:00N 41°30' W 081°42'0 0.0 050 / 31016.4 22.4 29.6
2017-Aug-16 03:00N 41°30' W 081°42'0 0.0 050 / 41015.7 23.3 29.1
2017-Aug-16 02:00N 41°30' W 081°42'4 4.5 030 / 41015.4 23.5 28.5
2017-Aug-16 01:00N 41°30' W 081°48'1110.8 120 / 21014.7 22.8 27.1
2017-Aug-16 00:00N 41°36' W 082°00'7 7.5 150 / 51014.4 23.2 27.1
2017-Aug-15 23:00N 41°42' W 082°06'1110.8 090 / 21014.0 23.6 27.0
2017-Aug-15 22:00N 41°48' W 082°18'19 9.4 110 / 21014.0 23.9 27.1
2017-Aug-15 20:00N 41°54' W 082°42'9 8.9 280 / 71014.0 24.3 27.7
2017-Aug-15 19:00N 41°54' W 082°54'15 7.5 280 / 71014.0 24.9 27.1
2017-Aug-15 17:00N 42°06' W 083°06'6 6.0 200 / 41013.7 23.0 26.8
2017-Aug-15 16:00N 42°12' W 083°06'7 7.5 270 / 61013.8 22.4 26.6
2017-Aug-15 15:00N 42°18' W 083°00'1110.7 330 / 81012.8 20.6 26.3
2017-Aug-15 14:00N 42°24' W 082°48'1110.7 120 / 71011.8 20.0 26.0
2017-Aug-15 13:00N 42°30' W 082°36'1312.8 340 / 61012.8 19.2 25.2
2017-Aug-15 12:00N 42°42' W 082°30'6 6.0 320 / 31012.7 17.7 25.2
2017-Aug-15 11:00N 42°48' W 082°30'1312.8 210 / 41012.0 18.4 25.0
2017-Aug-15 10:00N 43°00' W 082°24'6 6.0 210 / 51011.3 19.0 25.0
2017-Aug-15 09:00N 43°06' W 082°24'1312.8 170 / 81011.0 19.7 24.9
2017-Aug-15 08:00N 43°18' W 082°18'7 7.4 140 / 131011.0 19.8 24.9
2017-Aug-15 07:00N 43°24' W 082°12'1312.8 130 / 141011.0 19.5 24.2
2017-Aug-15 06:00N 43°36' W 082°06'6 6.0 130 / 141011.3 19.5 24.8
2017-Aug-15 05:00N 43°42' W 082°06'7 7.4 110 / 141011.3 19.0 24.0
2017-Aug-15 04:00N 43°48' W 082°12'1212.0 080 / 121011.6 18.5 23.8
2017-Aug-15 03:00N 44°00' W 082°12'90 8.9 350 / 81012.7 18.5 23.9
2017-Aug-14 16:47N 45°27' W 082°44'3 8.9
2017-Aug-14 16:30N 45°29' W 082°47'6 8.9
2017-Aug-14 15:51N 45°32' W 082°54'3 8.9
2017-Aug-14 15:30N 45°34' W 082°58'5 8.9
2017-Aug-14 15:00N 45°36' W 083°03'5 9.0
2017-Aug-14 14:30N 45°38' W 083°09'4 9.0
2017-Aug-14 14:00N 45°41' W 083°14'4 8.8
2017-Aug-14 13:30N 45°43' W 083°20'4 8.9
2017-Aug-14 13:00N 45°45' W 083°25'4 9.0
2017-Aug-14 12:30N 45°48' W 083°30'4 9.0
2017-Aug-14 12:01N 45°50' W 083°36'5 9.2
2017-Aug-14 11:30N 45°51' W 083°43'5 9.3
2017-Aug-14 11:00N 45°51' W 083°49'3264.6
2017-Aug-14 11:00N 45°54' W 083°48'612.0 220 / 21015.4 19.6 23.4
2017-Aug-14 10:30N 45°52' W 083°56'5 9.5
2017-Aug-14 10:00N 45°53' W 084°03'2161.5
2017-Aug-14 10:00N 45°54' W 084°00'613.4 210 / 81015.0 19.3 23.3
2017-Aug-14 09:30N 45°53' W 084°09'4 8.5
2017-Aug-14 09:00N 45°57' W 084°13'3202.3
2017-Aug-14 09:00N 45°54' W 084°12'6 7.5 220 / 91015.0 19.3 22.8
2017-Aug-14 08:12N 45°59' W 084°17'0 0.0
2017-Aug-14 08:00N 45°59' W 084°17'1266.1
2017-Aug-14 08:00N 46°00' W 084°18'1 1.9 220 / 41015.4 18.0 21.8
2017-Aug-14 07:15N 45°59' W 084°17'1 5.3
2017-Aug-14 07:00N 46°00' W 084°18'1240.7 230 / 21015.4 18.3 21.9
2017-Aug-14 06:59N 45°59' W 084°17'0 0.0
2017-Aug-14 06:30N 45°59' W 084°17'0 0.0
2017-Aug-14 06:00N 45°59' W 084°17'187.2
2017-Aug-14 06:00N 46°00' W 084°18'2 3.2 290 / 21015.7 17.7 21.7
2017-Aug-14 05:30N 45°59' W 084°16'3 5.4
2017-Aug-14 05:00N 45°57' W 084°14'3202.8
2017-Aug-14 05:00N 46°00' W 084°12'714.6 250 / 111015.7 19.2 22.9
2017-Aug-14 04:30N 45°53' W 084°11'5 9.4
2017-Aug-14 04:00N 45°49' W 084°07'1145.0
2017-Aug-14 04:00N 45°48' W 084°06'4 7.3 280 / 61016.0 19.7 23.9
2017-Aug-14 03:30N 45°45' W 084°03'5 9.6
2017-Aug-14 03:00N 45°41' W 083°59'161.6
2017-Aug-14 03:00N 45°42' W 084°00'612.0 030 / 41016.0 21.1 23.8
2017-Aug-14 02:30N 45°37' W 083°56'5 9.4
2017-Aug-14 02:00N 45°33' W 083°52'3629.9
2017-Aug-14 02:00N 45°36' W 083°54'816.2 240 / 41016.0 21.9 23.5
2017-Aug-14 01:30N 45°29' W 083°49'4 8.6
2017-Aug-14 01:00N 45°25' W 083°46'2104.9
2017-Aug-14 01:00N 45°24' W 083°48'1 2.0 140 / 31015.7 22.4 23.9
2017-Aug-14 00:30N 45°25' W 083°47'0 0.0
2017-Aug-14 00:00N 45°25' W 083°47'195.1
2017-Aug-14 00:00N 45°24' W 083°48'1 2.0 100 / 31016.0 22.9 24.0
2017-Aug-13 23:30N 45°25' W 083°47'0 0.1
2017-Aug-13 23:00N 45°25' W 083°47'1114.7
2017-Aug-13 23:00N 45°24' W 083°48'1 2.0 050 / 21016.0 23.9 24.2
2017-Aug-13 22:30N 45°25' W 083°47'0 0.0
2017-Aug-13 22:00N 45°25' W 083°47'188.0
2017-Aug-13 22:00N 45°24' W 083°48'1 2.0 090 / 21016.7 23.1 23.9
2017-Aug-13 21:30N 45°25' W 083°47'0 0.0
2017-Aug-13 21:00N 45°25' W 083°47'192.0
2017-Aug-13 21:00N 45°24' W 083°48'1 2.1 080 / 51017.1 22.3 23.9
2017-Aug-13 20:30N 45°25' W 083°47'0 0.0
2017-Aug-13 20:00N 45°25' W 083°47'191.0
2017-Aug-13 20:00N 45°24' W 083°48'1 2.0 070 / 41017.4 21.5 23.9
2017-Aug-13 19:30N 45°25' W 083°47'0 0.0
2017-Aug-13 19:00N 45°25' W 083°47'191.0
2017-Aug-13 19:00N 45°24' W 083°48'2 3.1 060 / 51017.4 21.4 23.6
2017-Aug-13 18:30N 45°25' W 083°46'1 1.2
2017-Aug-13 18:00N 45°25' W 083°47'2157.0
2017-Aug-13 18:00N 45°24' W 083°48'2 3.4 050 / 51017.7 22.3 23.5
2017-Aug-13 17:31N 45°25' W 083°47'0 0.1
2017-Aug-13 17:01N 45°25' W 083°47'2100.0
2017-Aug-13 17:00N 45°24' W 083°48'2 3.6 040 / 41018.1 22.9 23.8
2017-Aug-13 16:30N 45°25' W 083°47'0 0.1
2017-Aug-13 16:00N 45°25' W 083°47'2128.2
2017-Aug-13 16:00N 45°24' W 083°48'2 3.5 020 / 31018.1 22.2 23.6
2017-Aug-13 15:30N 45°25' W 083°47'0 0.0
2017-Aug-13 15:01N 45°25' W 083°47'2104.7
2017-Aug-13 15:00N 45°24' W 083°48'2 3.7 340 / 51018.1 22.1 23.4
2017-Aug-13 14:30N 45°26' W 083°47'0 0.0
2017-Aug-13 14:00N 45°26' W 083°47'2109.2
2017-Aug-13 14:00N 45°24' W 083°48'2 3.7 290 / 81018.1 20.7 23.3
2017-Aug-13 13:30N 45°26' W 083°47'0 0.0
2017-Aug-13 13:00N 45°26' W 083°47'2225.9
2017-Aug-13 13:00N 45°24' W 083°48'2 3.8 260 / 101018.1 18.9 23.2
2017-Aug-13 12:30N 45°26' W 083°47'0 0.0
2017-Aug-13 12:00N 45°26' W 083°47'2111.6
2017-Aug-13 12:00N 45°24' W 083°48'2 3.8 260 / 91017.7 16.4 23.2
2017-Aug-13 11:30N 45°26' W 083°47'0 0.1
2017-Aug-13 11:00N 45°26' W 083°47'2132.0
2017-Aug-13 11:00N 45°24' W 083°48'4 8.0 250 / 101018.1 15.1 23.3
2017-Aug-13 10:30N 45°25' W 083°43'4 7.0
2017-Aug-13 10:00N 45°25' W 083°38'2144.9
2017-Aug-13 10:00N 45°24' W 083°36'2 4.0 290 / 151017.4 17.1 23.2
2017-Aug-13 09:30N 45°24' W 083°33'3 6.7
2017-Aug-13 09:00N 45°23' W 083°29'177.4
2017-Aug-13 09:00N 45°24' W 083°30'5 9.7 290 / 131017.1 17.5 23.0
2017-Aug-13 08:29N 45°21' W 083°24'511.0
2017-Aug-13 08:00N 45°18' W 083°18'7 7.3 310 / 131016.7 17.8 23.0
2017-Aug-13 07:00N 45°12' W 083°12'7 7.3 320 / 171016.4 18.4 22.2
2017-Aug-13 06:00N 45°06' W 083°06'1312.7 310 / 151016.4 18.3 22.9
2017-Aug-13 05:00N 44°54' W 083°00'6 6.0 320 / 171016.4 19.0 22.3
2017-Aug-13 04:00N 44°48' W 083°00'1312.7 320 / 181016.4 19.1 22.3
2017-Aug-13 03:00N 44°36' W 082°54'25 8.5 330 / 121016.0 19.4 22.3
2017-Aug-13 00:00N 44°12' W 082°42'1312.8 020 / 111015.4 20.1 23.6
2017-Aug-12 23:00N 44°00' W 082°36'7 7.4 350 / 121015.4 19.8 24.0
2017-Aug-12 22:00N 43°54' W 082°30'1212.0 350 / 171015.0 19.4 24.4
2017-Aug-12 21:00N 43°42' W 082°30'6 6.0 350 / 191015.4 19.0 24.3
2017-Aug-12 20:00N 43°36' W 082°30'1212.0 1014.7 19.2 23.8
2017-Aug-12 19:00N 43°24' W 082°30'7 7.4 020 / 181015.0 19.3 23.7
2017-Aug-12 18:00N 43°18' W 082°24'1212.0 010 / 161014.7 19.3 24.5
2017-Aug-12 17:00N 43°06' W 082°24'6 6.0 020 / 181014.7 18.2 24.6
2017-Aug-12 16:00N 43°00' W 082°24'7 7.4 310 / 101014.0 20.9 24.9
2017-Aug-12 15:00N 42°54' W 082°30'6 6.0 300 / 111014.0 19.7 24.8
2017-Aug-12 14:00N 42°48' W 082°30'6 6.0 300 / 91014.3 18.4 24.9
2017-Aug-12 13:00N 42°42' W 082°30'7 7.4 320 / 81014.7 17.3 24.9
2017-Aug-12 12:00N 42°36' W 082°36'7 7.5 290 / 101014.2 18.0 25.0
2017-Aug-12 11:00N 42°30' W 082°42'1110.7 290 / 161013.8 17.4 25.9
2017-Aug-12 10:00N 42°24' W 082°54'7 7.5 300 / 101013.8 17.8 26.4
2017-Aug-12 09:00N 42°18' W 083°00'4 4.4 310 / 81013.8 18.4 26.4
2017-Aug-12 08:00N 42°18' W 083°06'0 0.0 280 / 41013.8 18.6 27.0
2017-Aug-12 07:00N 42°18' W 083°06'0 0.0 290 / 51013.5 19.2 27.1
2017-Aug-12 06:00N 42°18' W 083°06'0 0.0 280 / 101013.5 20.5 27.1
2017-Aug-12 05:00N 42°18' W 083°06'0 0.0 310 / 71013.8 21.6 27.0
2017-Aug-12 04:00N 42°18' W 083°06'0 0.0 290 / 71013.5 22.1 27.1
2017-Aug-12 03:00N 42°18' W 083°06'0 0.0 300 / 61013.8 23.4 28.2
2017-Aug-12 02:00N 42°18' W 083°06'0 0.0 330 / 61013.8 24.4 29.1
2017-Aug-12 01:00N 42°18' W 083°06'0 0.0 070 / 41013.5 23.2 29.8
2017-Aug-11 23:00N 42°18' W 083°06'1110.7 040 / 81012.5 27.0 26.6
2017-Aug-11 22:00N 42°24' W 082°54'4 4.4 190 / 111012.5 23.7 26.6
2017-Aug-11 21:00N 42°24' W 082°48'1110.7 200 / 141012.8 23.1 26.4
2017-Aug-11 20:00N 42°30' W 082°36'19 9.3 220 / 141013.5 23.1 25.2
2017-Aug-11 18:00N 42°48' W 082°30'1312.8 200 / 131014.3 22.8 24.8
2017-Aug-11 17:00N 43°00' W 082°24'6 6.0 200 / 161014.7 22.5 24.9
2017-Aug-11 16:00N 43°06' W 082°24'1212.0 190 / 101015.0 21.7 24.6
2017-Aug-11 15:00N 43°18' W 082°24'6 6.0 200 / 171015.4 20.6 24.5
2017-Aug-11 14:00N 43°24' W 082°24'1212.0 200 / 171015.0 20.3 23.5
2017-Aug-11 13:00N 43°36' W 082°24'6 6.0 210 / 141014.7 20.8 23.9
2017-Aug-11 12:00N 43°42' W 082°24'1212.0 190 / 191015.0 20.3 24.0
2017-Aug-11 11:00N 43°54' W 082°24'6 6.0 200 / 181014.7 20.1 23.6
2017-Aug-11 10:00N 44°00' W 082°24'7 7.4 190 / 171014.7 20.1 23.4
2017-Aug-11 09:00N 44°06' W 082°30'64 9.1 220 / 191015.0 20.0 23.2
2017-Aug-11 02:00N 45°06' W 083°00'7 7.3 150 / 141016.4 20.0 22.6
2017-Aug-11 01:00N 45°12' W 083°06'1010.4 170 / 181016.4 21.0 22.4
2017-Aug-11 00:00N 45°18' W 083°18'4 4.2 180 / 161016.0 20.3 23.6
2017-Aug-10 23:00N 45°18' W 083°24'0 0.0 160 / 101016.7 22.4 23.8
2017-Aug-10 22:00N 45°18' W 083°24'0 0.0 180 / 121017.1 23.5 23.8
2017-Aug-10 21:00N 45°18' W 083°24'0 0.0 150 / 111017.4 22.3 24.1
2017-Aug-10 20:00N 45°18' W 083°24'0 0.0 140 / 121018.1 24.0 24.1
2017-Aug-10 19:00N 45°18' W 083°24'0 0.0 230 / 121018.8 25.5 23.9
2017-Aug-10 18:00N 45°18' W 083°24'0 0.0 130 / 121018.8 22.1 23.6
2017-Aug-10 17:00N 45°18' W 083°24'0 0.0 140 / 151019.1 21.3 23.3
2017-Aug-10 16:00N 45°18' W 083°24'0 0.0 210 / 91019.4 24.1 23.3
2017-Aug-10 15:00N 45°18' W 083°24'0 0.0 270 / 41019.8 22.7 23.4
2017-Aug-10 14:00N 45°18' W 083°24'0 0.0 220 / 101019.8 21.2 23.4
2017-Aug-10 13:00N 45°18' W 083°24'1 3.9 210 / 61020.1 20.5 23.4
2017-Aug-10 12:45N 45°18' W 083°25'0 0.0
2017-Aug-10 12:23N 45°18' W 083°25'0 0.0
2017-Aug-10 12:00N 45°18' W 083°25'169.9
2017-Aug-10 12:00N 45°18' W 083°24'1 1.9 220 / 61020.1 19.2 23.4
2017-Aug-10 11:30N 45°18' W 083°25'1 1.8
2017-Aug-10 11:00N 45°18' W 083°24'0 0.0 230 / 71020.1 18.7 23.5
2017-Aug-10 10:00N 45°18' W 083°24'1 3.7 230 / 71019.8 18.4 23.7
2017-Aug-10 09:44N 45°18' W 083°25'0 0.0
2017-Aug-10 09:30N 45°18' W 083°25'1 1.8
2017-Aug-10 09:00N 45°18' W 083°24'0 0.0 240 / 61019.8 18.8 23.7
2017-Aug-10 08:00N 45°18' W 083°24'116.8 200 / 61020.1 18.3 23.6
2017-Aug-10 07:56N 45°18' W 083°25'0 0.0
2017-Aug-10 07:17N 45°18' W 083°25'1 3.2
2017-Aug-10 07:00N 45°18' W 083°24'1 5.8 200 / 51020.1 18.4 23.3
2017-Aug-10 06:50N 45°18' W 083°25'8 9.2
2017-Aug-10 06:00N 45°12' W 083°18'2 7.2 230 / 91020.4 18.7 23.3
2017-Aug-10 05:43N 45°13' W 083°15'2 9.7
2017-Aug-10 05:30N 45°11' W 083°13'5 9.5
2017-Aug-10 05:00N 45°08' W 083°08'3239.9
2017-Aug-10 05:00N 45°06' W 083°06'6 6.0 210 / 61020.8 19.1 22.9
2017-Aug-10 04:00N 45°00' W 083°06'1312.7 140 / 81020.8 19.0 22.8
2017-Aug-10 03:00N 44°48' W 083°00'7 7.4 070 / 81021.1 19.3 21.6
2017-Aug-10 02:00N 44°42' W 082°54'1312.7 120 / 111020.8 18.7 22.2
2017-Aug-10 01:00N 44°30' W 082°48'3110.4 120 / 101020.8 19.4 23.1
2017-Aug-09 22:00N 44°00' W 082°36'7 7.4 130 / 91020.8 21.0 23.9
2017-Aug-09 21:00N 43°54' W 082°30'1212.0 090 / 91021.1 20.9 24.0
2017-Aug-09 20:00N 43°42' W 082°30'6 6.0 040 / 91021.1 24.8 24.0
2017-Aug-09 19:00N 43°36' W 082°30'1212.0 270 / 91021.5 25.1 23.6
2017-Aug-09 18:00N 43°24' W 082°30'1312.8 260 / 71021.8 25.5 23.5
2017-Aug-09 17:00N 43°12' W 082°24'6 6.0 120 / 61022.1 23.8 24.1
2017-Aug-09 16:00N 43°06' W 082°24'6 6.0 260 / 91022.5 25.7 24.4
2017-Aug-09 15:00N 43°00' W 082°24'1312.8 220 / 81022.8 24.5 24.6
2017-Aug-09 14:00N 42°48' W 082°30'6 6.0 270 / 41023.2 22.4 24.6
2017-Aug-09 13:00N 42°42' W 082°30'6 6.0 270 / 41022.8 19.9 24.9
2017-Aug-09 12:00N 42°36' W 082°30'1110.7 290 / 51022.8 19.1 24.8
2017-Aug-09 11:00N 42°30' W 082°42'7 7.5 310 / 91022.3 20.0 24.8
2017-Aug-09 10:00N 42°24' W 082°48'1110.7 290 / 101021.9 19.4 25.5
2017-Aug-09 09:00N 42°18' W 083°00'4 4.4 280 / 71021.9 20.1 26.1
2017-Aug-09 08:00N 42°18' W 083°06'1212.0 250 / 31021.6 19.3 26.2
2017-Aug-09 07:00N 42°06' W 083°06'6 6.0 330 / 71021.6 19.9 26.1
2017-Aug-09 06:00N 42°00' W 083°06'6 6.0 320 / 91021.5 20.8 26.3
2017-Aug-09 05:00N 41°54' W 083°06'9 8.9 320 / 141021.5 23.2 26.6
2017-Aug-09 04:00N 41°54' W 082°54'9 8.9 240 / 131021.2 23.4 27.1
2017-Aug-09 03:00N 41°54' W 082°42'1110.8 220 / 151020.5 23.8 27.3
2017-Aug-09 02:00N 41°48' W 082°30'19 9.4 210 / 131020.5 23.8 26.8
2017-Aug-09 00:00N 41°42' W 082°06'1110.8 240 / 111020.5 23.2 26.6
2017-Aug-08 23:00N 41°36' W 081°54'1110.8 250 / 71020.5 22.7 26.3
2017-Aug-08 22:00N 41°30' W 081°42'0 0.0 290 / 71020.8 22.6 28.0
2017-Aug-08 21:00N 41°30' W 081°42'0 0.0 300 / 51021.2 24.0 28.4
2017-Aug-08 20:00N 41°30' W 081°42'0 0.0 330 / 61021.2 22.9 28.5
2017-Aug-08 19:00N 41°30' W 081°42'0 0.0 300 / 61021.5 24.3 28.5
2017-Aug-08 18:00N 41°30' W 081°42'0 0.0 300 / 71021.5 23.0 28.4
2017-Aug-08 17:00N 41°30' W 081°42'0 0.0 320 / 41021.5 22.5 28.2
2017-Aug-08 16:00N 41°30' W 081°42'1110.8 290 / 51021.8 20.7 26.6
2017-Aug-08 15:00N 41°36' W 081°54'9 9.0 340 / 61021.5 20.6 25.6
2017-Aug-08 14:00N 41°36' W 082°06'9 9.0 330 / 91021.2 20.6 25.7
2017-Aug-08 13:00N 41°36' W 082°18'9 9.0 340 / 91020.8 20.4 25.7
2017-Aug-08 12:00N 41°36' W 082°30'9 9.0 340 / 91020.5 19.9 26.3
2017-Aug-08 11:00N 41°36' W 082°42'6 6.0 010 / 91020.1 19.8 27.0
2017-Aug-08 10:00N 41°30' W 082°42'0 0.0 360 / 81019.8 19.8 27.0
2017-Aug-08 09:00N 41°30' W 082°42'0 0.0 030 / 61019.1 19.9 27.1
2017-Aug-08 08:00N 41°30' W 082°42'0 0.0 020 / 81018.8 20.0 27.2
2017-Aug-08 07:00N 41°30' W 082°42'0 0.0 040 / 121018.8 20.2 27.3
2017-Aug-08 06:00N 41°30' W 082°42'0 0.0 030 / 151018.5 19.9 27.2
2017-Aug-08 05:00N 41°30' W 082°42'0 0.0 030 / 141018.5 20.5 27.1
2017-Aug-08 04:00N 41°30' W 082°42'0 0.0 030 / 151017.8 21.4 27.0
2017-Aug-08 03:00N 41°30' W 082°42'0 0.0 010 / 61017.4 22.0 27.2
2017-Aug-08 02:00N 41°30' W 082°42'0 0.0 010 / 81017.1 21.9 27.2
2017-Aug-08 01:00N 41°30' W 082°42'0 0.0 020 / 41016.4 22.1 27.4
2017-Aug-08 00:00N 41°30' W 082°42'0 0.0 010 / 51016.1 22.2 27.8
2017-Aug-07 23:00N 41°30' W 082°42'6 6.0 040 / 71016.1 21.8 27.9
2017-Aug-07 22:00N 41°36' W 082°42'0 0.0 360 / 131016.1 21.4 27.3
2017-Aug-07 21:00N 41°36' W 082°42'7 7.5 330 / 31015.7 23.3 27.3
2017-Aug-07 20:00N 41°42' W 082°36'7 7.5 220 / 31016.1 22.4 26.8
2017-Aug-07 19:00N 41°48' W 082°30'7 7.5 160 / 41016.1 21.4 26.8
2017-Aug-07 18:00N 41°54' W 082°36'9 8.9 140 / 61016.1 22.2 27.4
2017-Aug-07 17:00N 41°54' W 082°48'1313.4
2017-Aug-07 16:00N 41°54' W 083°06'6 6.0 1017.1 20.7 27.0
2017-Aug-07 15:00N 42°00' W 083°06'   350 / 71016.8 21.8 25.9
Track history (hours):
 
Tides and Currents Weather Stations Pressure Air Temp Water Temp Dewpoint Dewpoint Depression Visibility Wind Speed Wind Dir Waves Ship Positions

Dorothy Ann

Owner: THE INTERLAKE STEAMSHIP COMPANY, Middleburg Heights, OH. More information available from US FCC via Universal Licensing System and Coast Guard Vessel Documentation Center.

Last reported at 2017-Aug-17 15:00 UTC. Time now 2017-Aug-17 15:40 UTC.
Position N 41°30' W 082°42'.

Length 215 m; draft 6.2 m.

Type: Cargo ship. MMSI: 367409260.

Wind from 210 at 12 knots

Barometer 1012.7 mb
Air temperature 26.1 ° C
Water temperature 27.9 ° C

Date/timePositionNaut miles runAvg speedWind from/ knotsBaromVisibWave heightAir tempDewpointWater temp
2017-Aug-17 15:00N 41°30' W 082°42'6 6.0 210 / 121012.7 26.1 27.9
2017-Aug-17 14:00N 41°36' W 082°42'9 9.0 200 / 121013.0 24.9 27.8
2017-Aug-17 13:00N 41°36' W 082°30'9 9.0 180 / 141013.4 23.9 27.1
2017-Aug-17 12:00N 41°36' W 082°18'9 9.0 170 / 151013.7 23.2 26.8
2017-Aug-17 11:00N 41°36' W 082°06'9 9.0 180 / 161014.0 22.9 26.9
2017-Aug-17 10:00N 41°36' W 081°54'1110.8 160 / 121014.4 22.8 26.9
2017-Aug-17 09:00N 41°30' W 081°42'0 0.0 160 / 161014.7 26.1 27.0
2017-Aug-17 08:00N 41°30' W 081°42'0 0.0 130 / 81015.4 21.6 29.2
2017-Aug-17 07:00N 41°30' W 081°42'0 0.0 180 / 41016.1 21.4 30.2
2017-Aug-17 06:00N 41°30' W 081°42'0 0.0 160 / 81016.4 21.8 28.6
2017-Aug-17 05:00N 41°30' W 081°42'0 0.0 160 / 61017.1 23.0 28.7
2017-Aug-17 04:00N 41°30' W 081°42'0 0.0 130 / 21017.1 23.2 29.4
2017-Aug-17 03:00N 41°30' W 081°42'0 0.0 150 / 41017.4 23.6 30.1
2017-Aug-17 02:00N 41°30' W 081°42'0 0.0 110 / 41017.8 24.8 29.6
2017-Aug-17 01:00N 41°30' W 081°42'0 0.0 090 / 81017.4 25.4 29.7
2017-Aug-17 00:00N 41°30' W 081°42'0 0.0 090 / 81017.1 26.4 29.7
2017-Aug-16 23:00N 41°30' W 081°42'0 0.0 030 / 81017.1 25.9 29.2
2017-Aug-16 22:00N 41°30' W 081°42'0 0.0 050 / 171017.1 23.2 28.1
2017-Aug-16 21:00N 41°30' W 081°42'0 0.0 050 / 181017.8 23.7 28.2
2017-Aug-16 20:00N 41°30' W 081°42'0 0.0 040 / 151018.1 23.5 28.3
2017-Aug-16 19:00N 41°30' W 081°42'0 0.0 050 / 141018.8 23.3 28.0
2017-Aug-16 18:00N 41°30' W 081°42'0 0.0 040 / 121019.1 23.0 27.7
2017-Aug-16 17:00N 41°30' W 081°42'0 0.0 020 / 111019.1 22.5 27.6
2017-Aug-16 16:00N 41°30' W 081°42'0 0.0 020 / 91019.5 22.3 27.5
2017-Aug-16 15:00N 41°30' W 081°42'0 0.0 020 / 61019.5 22.9 27.7
2017-Aug-16 14:00N 41°30' W 081°42'0 0.0 030 / 61019.8 22.0 27.4
2017-Aug-16 13:00N 41°30' W 081°42'0 0.0 090 / 41019.5 22.6 27.9
2017-Aug-16 12:00N 41°30' W 081°42'0 0.0 130 / 51019.5 21.5 29.0
2017-Aug-16 11:00N 41°30' W 081°42'0 0.0 170 / 21018.5 18.6 29.9
2017-Aug-16 10:00N 41°30' W 081°42'0 0.0 150 / 11018.1 18.1 29.7
2017-Aug-16 09:00N 41°30' W 081°42'0 0.0 130 / 11017.1 18.9 29.8
2017-Aug-16 08:00N 41°30' W 081°42'0 0.0 130 / 31017.1 19.1 29.7
2017-Aug-16 07:00N 41°30' W 081°42'0 0.0 180 / 11017.1 20.0 29.5
2017-Aug-16 06:00N 41°30' W 081°42'0 0.0 120 / 31016.8 21.5 29.2
2017-Aug-16 05:00N 41°30' W 081°42'0 0.0 100 / 21016.8 22.2 29.0
2017-Aug-16 04:00N 41°30' W 081°42'0 0.0 050 / 31016.4 22.4 29.6
2017-Aug-16 03:00N 41°30' W 081°42'0 0.0 050 / 41015.7 23.3 29.1
2017-Aug-16 02:00N 41°30' W 081°42'4 4.5 030 / 41015.4 23.5 28.5
2017-Aug-16 01:00N 41°30' W 081°48'1110.8 120 / 21014.7 22.8 27.1
2017-Aug-16 00:00N 41°36' W 082°00'7 7.5 150 / 51014.4 23.2 27.1
2017-Aug-15 23:00N 41°42' W 082°06'1110.8 090 / 21014.0 23.6 27.0
2017-Aug-15 22:00N 41°48' W 082°18'19 9.4 110 / 21014.0 23.9 27.1
2017-Aug-15 20:00N 41°54' W 082°42'9 8.9 280 / 71014.0 24.3 27.7
2017-Aug-15 19:00N 41°54' W 082°54'15 7.5 280 / 71014.0 24.9 27.1
2017-Aug-15 17:00N 42°06' W 083°06'6 6.0 200 / 41013.7 23.0 26.8
2017-Aug-15 16:00N 42°12' W 083°06'7 7.5 270 / 61013.8 22.4 26.6
2017-Aug-15 15:00N 42°18' W 083°00'1110.7 330 / 81012.8 20.6 26.3
2017-Aug-15 14:00N 42°24' W 082°48'1110.7 120 / 71011.8 20.0 26.0
2017-Aug-15 13:00N 42°30' W 082°36'1312.8 340 / 61012.8 19.2 25.2
2017-Aug-15 12:00N 42°42' W 082°30'6 6.0 320 / 31012.7 17.7 25.2
2017-Aug-15 11:00N 42°48' W 082°30'1312.8 210 / 41012.0 18.4 25.0
2017-Aug-15 10:00N 43°00' W 082°24'6 6.0 210 / 51011.3 19.0 25.0
2017-Aug-15 09:00N 43°06' W 082°24'1312.8 170 / 81011.0 19.7 24.9
2017-Aug-15 08:00N 43°18' W 082°18'7 7.4 140 / 131011.0 19.8 24.9
2017-Aug-15 07:00N 43°24' W 082°12'1312.8 130 / 141011.0 19.5 24.2
2017-Aug-15 06:00N 43°36' W 082°06'6 6.0 130 / 141011.3 19.5 24.8
2017-Aug-15 05:00N 43°42' W 082°06'7 7.4 110 / 141011.3 19.0 24.0
2017-Aug-15 04:00N 43°48' W 082°12'1212.0 080 / 121011.6 18.5 23.8
2017-Aug-15 03:00N 44°00' W 082°12'90 8.9 350 / 81012.7 18.5 23.9
2017-Aug-14 16:47N 45°27' W 082°44'3 8.9
2017-Aug-14 16:30N 45°29' W 082°47'6 8.9
2017-Aug-14 15:51N 45°32' W 082°54'3 8.9
2017-Aug-14 15:30N 45°34' W 082°58'5 8.9
2017-Aug-14 15:00N 45°36' W 083°03'5 9.0
2017-Aug-14 14:30N 45°38' W 083°09'4 9.0
2017-Aug-14 14:00N 45°41' W 083°14'4 8.8
2017-Aug-14 13:30N 45°43' W 083°20'4 8.9
2017-Aug-14 13:00N 45°45' W 083°25'4 9.0
2017-Aug-14 12:30N 45°48' W 083°30'4 9.0
2017-Aug-14 12:01N 45°50' W 083°36'5 9.2
2017-Aug-14 11:30N 45°51' W 083°43'5 9.3
2017-Aug-14 11:00N 45°51' W 083°49'3264.6
2017-Aug-14 11:00N 45°54' W 083°48'612.0 220 / 21015.4 19.6 23.4
2017-Aug-14 10:30N 45°52' W 083°56'5 9.5
2017-Aug-14 10:00N 45°53' W 084°03'2161.5
2017-Aug-14 10:00N 45°54' W 084°00'613.4 210 / 81015.0 19.3 23.3
2017-Aug-14 09:30N 45°53' W 084°09'4 8.5
2017-Aug-14 09:00N 45°57' W 084°13'3202.3
2017-Aug-14 09:00N 45°54' W 084°12'6 7.5 220 / 91015.0 19.3 22.8
2017-Aug-14 08:12N 45°59' W 084°17'0 0.0
2017-Aug-14 08:00N 45°59' W 084°17'1266.1
2017-Aug-14 08:00N 46°00' W 084°18'1 1.9 220 / 41015.4 18.0 21.8
2017-Aug-14 07:15N 45°59' W 084°17'1 5.3
2017-Aug-14 07:00N 46°00' W 084°18'1240.7 230 / 21015.4 18.3 21.9
2017-Aug-14 06:59N 45°59' W 084°17'0 0.0
2017-Aug-14 06:30N 45°59' W 084°17'0 0.0
2017-Aug-14 06:00N 45°59' W 084°17'187.2
2017-Aug-14 06:00N 46°00' W 084°18'2 3.2 290 / 21015.7 17.7 21.7
2017-Aug-14 05:30N 45°59' W 084°16'3 5.4
2017-Aug-14 05:00N 45°57' W 084°14'3202.8
2017-Aug-14 05:00N 46°00' W 084°12'714.6 250 / 111015.7 19.2 22.9
2017-Aug-14 04:30N 45°53' W 084°11'5 9.4
2017-Aug-14 04:00N 45°49' W 084°07'1145.0
2017-Aug-14 04:00N 45°48' W 084°06'4 7.3 280 / 61016.0 19.7 23.9
2017-Aug-14 03:30N 45°45' W 084°03'5 9.6
2017-Aug-14 03:00N 45°41' W 083°59'161.6
2017-Aug-14 03:00N 45°42' W 084°00'612.0 030 / 41016.0 21.1 23.8
2017-Aug-14 02:30N 45°37' W 083°56'5 9.4
2017-Aug-14 02:00N 45°33' W 083°52'3629.9
2017-Aug-14 02:00N 45°36' W 083°54'816.2 240 / 41016.0 21.9 23.5
2017-Aug-14 01:30N 45°29' W 083°49'4 8.6
2017-Aug-14 01:00N 45°25' W 083°46'2104.9
2017-Aug-14 01:00N 45°24' W 083°48'1 2.0 140 / 31015.7 22.4 23.9
2017-Aug-14 00:30N 45°25' W 083°47'0 0.0
2017-Aug-14 00:00N 45°25' W 083°47'195.1
2017-Aug-14 00:00N 45°24' W 083°48'1 2.0 100 / 31016.0 22.9 24.0
2017-Aug-13 23:30N 45°25' W 083°47'0 0.1
2017-Aug-13 23:00N 45°25' W 083°47'1114.7
2017-Aug-13 23:00N 45°24' W 083°48'1 2.0 050 / 21016.0 23.9 24.2
2017-Aug-13 22:30N 45°25' W 083°47'0 0.0
2017-Aug-13 22:00N 45°25' W 083°47'188.0
2017-Aug-13 22:00N 45°24' W 083°48'1 2.0 090 / 21016.7 23.1 23.9
2017-Aug-13 21:30N 45°25' W 083°47'0 0.0
2017-Aug-13 21:00N 45°25' W 083°47'192.0
2017-Aug-13 21:00N 45°24' W 083°48'1 2.1 080 / 51017.1 22.3 23.9
2017-Aug-13 20:30N 45°25' W 083°47'0 0.0
2017-Aug-13 20:00N 45°25' W 083°47'191.0
2017-Aug-13 20:00N 45°24' W 083°48'1 2.0 070 / 41017.4 21.5 23.9
2017-Aug-13 19:30N 45°25' W 083°47'0 0.0
2017-Aug-13 19:00N 45°25' W 083°47'191.0
2017-Aug-13 19:00N 45°24' W 083°48'2 3.1 060 / 51017.4 21.4 23.6
2017-Aug-13 18:30N 45°25' W 083°46'1 1.2
2017-Aug-13 18:00N 45°25' W 083°47'2157.0
2017-Aug-13 18:00N 45°24' W 083°48'2 3.4 050 / 51017.7 22.3 23.5
2017-Aug-13 17:31N 45°25' W 083°47'0 0.1
2017-Aug-13 17:01N 45°25' W 083°47'2100.0
2017-Aug-13 17:00N 45°24' W 083°48'2 3.6 040 / 41018.1 22.9 23.8
2017-Aug-13 16:30N 45°25' W 083°47'0 0.1
2017-Aug-13 16:00N 45°25' W 083°47'2128.2
2017-Aug-13 16:00N 45°24' W 083°48'2 3.5 020 / 31018.1 22.2 23.6
2017-Aug-13 15:30N 45°25' W 083°47'0 0.0
2017-Aug-13 15:01N 45°25' W 083°47'2104.7
2017-Aug-13 15:00N 45°24' W 083°48'2 3.7 340 / 51018.1 22.1 23.4
2017-Aug-13 14:30N 45°26' W 083°47'0 0.0
2017-Aug-13 14:00N 45°26' W 083°47'2109.2
2017-Aug-13 14:00N 45°24' W 083°48'2 3.7 290 / 81018.1 20.7 23.3
2017-Aug-13 13:30N 45°26' W 083°47'0 0.0
2017-Aug-13 13:00N 45°26' W 083°47'2225.9
2017-Aug-13 13:00N 45°24' W 083°48'2 3.8 260 / 101018.1 18.9 23.2
2017-Aug-13 12:30N 45°26' W 083°47'0 0.0
2017-Aug-13 12:00N 45°26' W 083°47'2111.6
2017-Aug-13 12:00N 45°24' W 083°48'2 3.8 260 / 91017.7 16.4 23.2
2017-Aug-13 11:30N 45°26' W 083°47'0 0.1
2017-Aug-13 11:00N 45°26' W 083°47'2132.0
2017-Aug-13 11:00N 45°24' W 083°48'4 8.0 250 / 101018.1 15.1 23.3
2017-Aug-13 10:30N 45°25' W 083°43'4 7.0
2017-Aug-13 10:00N 45°25' W 083°38'2144.9
2017-Aug-13 10:00N 45°24' W 083°36'2 4.0 290 / 151017.4 17.1 23.2
2017-Aug-13 09:30N 45°24' W 083°33'3 6.7
2017-Aug-13 09:00N 45°23' W 083°29'177.4
2017-Aug-13 09:00N 45°24' W 083°30'5 9.7 290 / 131017.1 17.5 23.0
2017-Aug-13 08:29N 45°21' W 083°24'511.0
2017-Aug-13 08:00N 45°18' W 083°18'7 7.3 310 / 131016.7 17.8 23.0
2017-Aug-13 07:00N 45°12' W 083°12'7 7.3 320 / 171016.4 18.4 22.2
2017-Aug-13 06:00N 45°06' W 083°06'1312.7 310 / 151016.4 18.3 22.9
2017-Aug-13 05:00N 44°54' W 083°00'6 6.0 320 / 171016.4 19.0 22.3
2017-Aug-13 04:00N 44°48' W 083°00'1312.7 320 / 181016.4 19.1 22.3
2017-Aug-13 03:00N 44°36' W 082°54'25 8.5 330 / 121016.0 19.4 22.3
2017-Aug-13 00:00N 44°12' W 082°42'1312.8 020 / 111015.4 20.1 23.6
2017-Aug-12 23:00N 44°00' W 082°36'7 7.4 350 / 121015.4 19.8 24.0
2017-Aug-12 22:00N 43°54' W 082°30'1212.0 350 / 171015.0 19.4 24.4
2017-Aug-12 21:00N 43°42' W 082°30'6 6.0 350 / 191015.4 19.0 24.3
2017-Aug-12 20:00N 43°36' W 082°30'1212.0 1014.7 19.2 23.8
2017-Aug-12 19:00N 43°24' W 082°30'7 7.4 020 / 181015.0 19.3 23.7
2017-Aug-12 18:00N 43°18' W 082°24'1212.0 010 / 161014.7 19.3 24.5
2017-Aug-12 17:00N 43°06' W 082°24'6 6.0 020 / 181014.7 18.2 24.6
2017-Aug-12 16:00N 43°00' W 082°24'7 7.4 310 / 101014.0 20.9 24.9
2017-Aug-12 15:00N 42°54' W 082°30'6 6.0 300 / 111014.0 19.7 24.8
2017-Aug-12 14:00N 42°48' W 082°30'6 6.0 300 / 91014.3 18.4 24.9
2017-Aug-12 13:00N 42°42' W 082°30'7 7.4 320 / 81014.7 17.3 24.9
2017-Aug-12 12:00N 42°36' W 082°36'7 7.5 290 / 101014.2 18.0 25.0
2017-Aug-12 11:00N 42°30' W 082°42'1110.7 290 / 161013.8 17.4 25.9
2017-Aug-12 10:00N 42°24' W 082°54'7 7.5 300 / 101013.8 17.8 26.4
2017-Aug-12 09:00N 42°18' W 083°00'4 4.4 310 / 81013.8 18.4 26.4
2017-Aug-12 08:00N 42°18' W 083°06'0 0.0 280 / 41013.8 18.6 27.0
2017-Aug-12 07:00N 42°18' W 083°06'0 0.0 290 / 51013.5 19.2 27.1
2017-Aug-12 06:00N 42°18' W 083°06'0 0.0 280 / 101013.5 20.5 27.1
2017-Aug-12 05:00N 42°18' W 083°06'0 0.0 310 / 71013.8 21.6 27.0
2017-Aug-12 04:00N 42°18' W 083°06'0 0.0 290 / 71013.5 22.1 27.1
2017-Aug-12 03:00N 42°18' W 083°06'0 0.0 300 / 61013.8 23.4 28.2
2017-Aug-12 02:00N 42°18' W 083°06'0 0.0 330 / 61013.8 24.4 29.1
2017-Aug-12 01:00N 42°18' W 083°06'0 0.0 070 / 41013.5 23.2 29.8
2017-Aug-11 23:00N 42°18' W 083°06'1110.7 040 / 81012.5 27.0 26.6
2017-Aug-11 22:00N 42°24' W 082°54'4 4.4 190 / 111012.5 23.7 26.6
2017-Aug-11 21:00N 42°24' W 082°48'1110.7 200 / 141012.8 23.1 26.4
2017-Aug-11 20:00N 42°30' W 082°36'19 9.3 220 / 141013.5 23.1 25.2
2017-Aug-11 18:00N 42°48' W 082°30'1312.8 200 / 131014.3 22.8 24.8
2017-Aug-11 17:00N 43°00' W 082°24'6 6.0 200 / 161014.7 22.5 24.9
2017-Aug-11 16:00N 43°06' W 082°24'1212.0 190 / 101015.0 21.7 24.6
2017-Aug-11 15:00N 43°18' W 082°24'6 6.0 200 / 171015.4 20.6 24.5
2017-Aug-11 14:00N 43°24' W 082°24'1212.0 200 / 171015.0 20.3 23.5
2017-Aug-11 13:00N 43°36' W 082°24'6 6.0 210 / 141014.7 20.8 23.9
2017-Aug-11 12:00N 43°42' W 082°24'1212.0 190 / 191015.0 20.3 24.0
2017-Aug-11 11:00N 43°54' W 082°24'6 6.0 200 / 181014.7 20.1 23.6
2017-Aug-11 10:00N 44°00' W 082°24'7 7.4 190 / 171014.7 20.1 23.4
2017-Aug-11 09:00N 44°06' W 082°30'64 9.1 220 / 191015.0 20.0 23.2
2017-Aug-11 02:00N 45°06' W 083°00'7 7.3 150 / 141016.4 20.0 22.6
2017-Aug-11 01:00N 45°12' W 083°06'1010.4 170 / 181016.4 21.0 22.4
2017-Aug-11 00:00N 45°18' W 083°18'4 4.2 180 / 161016.0 20.3 23.6
2017-Aug-10 23:00N 45°18' W 083°24'0 0.0 160 / 101016.7 22.4 23.8
2017-Aug-10 22:00N 45°18' W 083°24'0 0.0 180 / 121017.1 23.5 23.8
2017-Aug-10 21:00N 45°18' W 083°24'0 0.0 150 / 111017.4 22.3 24.1
2017-Aug-10 20:00N 45°18' W 083°24'0 0.0 140 / 121018.1 24.0 24.1
2017-Aug-10 19:00N 45°18' W 083°24'0 0.0 230 / 121018.8 25.5 23.9
2017-Aug-10 18:00N 45°18' W 083°24'0 0.0 130 / 121018.8 22.1 23.6
2017-Aug-10 17:00N 45°18' W 083°24'0 0.0 140 / 151019.1 21.3 23.3
2017-Aug-10 16:00N 45°18' W 083°24'0 0.0 210 / 91019.4 24.1 23.3
2017-Aug-10 15:00N 45°18' W 083°24'0 0.0 270 / 41019.8 22.7 23.4
2017-Aug-10 14:00N 45°18' W 083°24'0 0.0 220 / 101019.8 21.2 23.4
2017-Aug-10 13:00N 45°18' W 083°24'1 3.9 210 / 61020.1 20.5 23.4
2017-Aug-10 12:45N 45°18' W 083°25'0 0.0
2017-Aug-10 12:23N 45°18' W 083°25'0 0.0
2017-Aug-10 12:00N 45°18' W 083°25'169.9
2017-Aug-10 12:00N 45°18' W 083°24'1 1.9 220 / 61020.1 19.2 23.4
2017-Aug-10 11:30N 45°18' W 083°25'1 1.8
2017-Aug-10 11:00N 45°18' W 083°24'0 0.0 230 / 71020.1 18.7 23.5
2017-Aug-10 10:00N 45°18' W 083°24'1 3.7 230 / 71019.8 18.4 23.7
2017-Aug-10 09:44N 45°18' W 083°25'0 0.0
2017-Aug-10 09:30N 45°18' W 083°25'1 1.8
2017-Aug-10 09:00N 45°18' W 083°24'0 0.0 240 / 61019.8 18.8 23.7
2017-Aug-10 08:00N 45°18' W 083°24'116.8 200 / 61020.1 18.3 23.6
2017-Aug-10 07:56N 45°18' W 083°25'0 0.0
2017-Aug-10 07:17N 45°18' W 083°25'1 3.2
2017-Aug-10 07:00N 45°18' W 083°24'1 5.8 200 / 51020.1 18.4 23.3
2017-Aug-10 06:50N 45°18' W 083°25'8 9.2
2017-Aug-10 06:00N 45°12' W 083°18'2 7.2 230 / 91020.4 18.7 23.3
2017-Aug-10 05:43N 45°13' W 083°15'2 9.7
2017-Aug-10 05:30N 45°11' W 083°13'5 9.5
2017-Aug-10 05:00N 45°08' W 083°08'3239.9
2017-Aug-10 05:00N 45°06' W 083°06'6 6.0 210 / 61020.8 19.1 22.9
2017-Aug-10 04:00N 45°00' W 083°06'1312.7 140 / 81020.8 19.0 22.8
2017-Aug-10 03:00N 44°48' W 083°00'7 7.4 070 / 81021.1 19.3 21.6
2017-Aug-10 02:00N 44°42' W 082°54'1312.7 120 / 111020.8 18.7 22.2
2017-Aug-10 01:00N 44°30' W 082°48'3110.4 120 / 101020.8 19.4 23.1
2017-Aug-09 22:00N 44°00' W 082°36'7 7.4 130 / 91020.8 21.0 23.9
2017-Aug-09 21:00N 43°54' W 082°30'1212.0 090 / 91021.1 20.9 24.0
2017-Aug-09 20:00N 43°42' W 082°30'6 6.0 040 / 91021.1 24.8 24.0
2017-Aug-09 19:00N 43°36' W 082°30'1212.0 270 / 91021.5 25.1 23.6
2017-Aug-09 18:00N 43°24' W 082°30'1312.8 260 / 71021.8 25.5 23.5
2017-Aug-09 17:00N 43°12' W 082°24'6 6.0 120 / 61022.1 23.8 24.1
2017-Aug-09 16:00N 43°06' W 082°24'6 6.0 260 / 91022.5 25.7 24.4
2017-Aug-09 15:00N 43°00' W 082°24'1312.8 220 / 81022.8 24.5 24.6
2017-Aug-09 14:00N 42°48' W 082°30'6 6.0 270 / 41023.2 22.4 24.6
2017-Aug-09 13:00N 42°42' W 082°30'6 6.0 270 / 41022.8 19.9 24.9
2017-Aug-09 12:00N 42°36' W 082°30'1110.7 290 / 51022.8 19.1 24.8
2017-Aug-09 11:00N 42°30' W 082°42'7 7.5 310 / 91022.3 20.0 24.8
2017-Aug-09 10:00N 42°24' W 082°48'1110.7 290 / 101021.9 19.4 25.5
2017-Aug-09 09:00N 42°18' W 083°00'4 4.4 280 / 71021.9 20.1 26.1
2017-Aug-09 08:00N 42°18' W 083°06'1212.0 250 / 31021.6 19.3 26.2
2017-Aug-09 07:00N 42°06' W 083°06'6 6.0 330 / 71021.6 19.9 26.1
2017-Aug-09 06:00N 42°00' W 083°06'6 6.0 320 / 91021.5 20.8 26.3
2017-Aug-09 05:00N 41°54' W 083°06'9 8.9 320 / 141021.5 23.2 26.6
2017-Aug-09 04:00N 41°54' W 082°54'9 8.9 240 / 131021.2 23.4 27.1
2017-Aug-09 03:00N 41°54' W 082°42'1110.8 220 / 151020.5 23.8 27.3
2017-Aug-09 02:00N 41°48' W 082°30'19 9.4 210 / 131020.5 23.8 26.8
2017-Aug-09 00:00N 41°42' W 082°06'1110.8 240 / 111020.5 23.2 26.6
2017-Aug-08 23:00N 41°36' W 081°54'1110.8 250 / 71020.5 22.7 26.3
2017-Aug-08 22:00N 41°30' W 081°42'0 0.0 290 / 71020.8 22.6 28.0
2017-Aug-08 21:00N 41°30' W 081°42'0 0.0 300 / 51021.2 24.0 28.4
2017-Aug-08 20:00N 41°30' W 081°42'0 0.0 330 / 61021.2 22.9 28.5
2017-Aug-08 19:00N 41°30' W 081°42'0 0.0 300 / 61021.5 24.3 28.5
2017-Aug-08 18:00N 41°30' W 081°42'0 0.0 300 / 71021.5 23.0 28.4
2017-Aug-08 17:00N 41°30' W 081°42'0 0.0 320 / 41021.5 22.5 28.2
2017-Aug-08 16:00N 41°30' W 081°42'1110.8 290 / 51021.8 20.7 26.6
2017-Aug-08 15:00N 41°36' W 081°54'9 9.0 340 / 61021.5 20.6 25.6
2017-Aug-08 14:00N 41°36' W 082°06'9 9.0 330 / 91021.2 20.6 25.7
2017-Aug-08 13:00N 41°36' W 082°18'9 9.0 340 / 91020.8 20.4 25.7
2017-Aug-08 12:00N 41°36' W 082°30'9 9.0 340 / 91020.5 19.9 26.3
2017-Aug-08 11:00N 41°36' W 082°42'6 6.0 010 / 91020.1 19.8 27.0
2017-Aug-08 10:00N 41°30' W 082°42'0 0.0 360 / 81019.8 19.8 27.0
2017-Aug-08 09:00N 41°30' W 082°42'0 0.0 030 / 61019.1 19.9 27.1
2017-Aug-08 08:00N 41°30' W 082°42'0 0.0 020 / 81018.8 20.0 27.2
2017-Aug-08 07:00N 41°30' W 082°42'0 0.0 040 / 121018.8 20.2 27.3
2017-Aug-08 06:00N 41°30' W 082°42'0 0.0 030 / 151018.5 19.9 27.2
2017-Aug-08 05:00N 41°30' W 082°42'0 0.0 030 / 141018.5 20.5 27.1
2017-Aug-08 04:00N 41°30' W 082°42'0 0.0 030 / 151017.8 21.4 27.0
2017-Aug-08 03:00N 41°30' W 082°42'0 0.0 010 / 61017.4 22.0 27.2
2017-Aug-08 02:00N 41°30' W 082°42'0 0.0 010 / 81017.1 21.9 27.2
2017-Aug-08 01:00N 41°30' W 082°42'0 0.0 020 / 41016.4 22.1 27.4
2017-Aug-08 00:00N 41°30' W 082°42'0 0.0 010 / 51016.1 22.2 27.8
2017-Aug-07 23:00N 41°30' W 082°42'6 6.0 040 / 71016.1 21.8 27.9
2017-Aug-07 22:00N 41°36' W 082°42'0 0.0 360 / 131016.1 21.4 27.3
2017-Aug-07 21:00N 41°36' W 082°42'7 7.5 330 / 31015.7 23.3 27.3
2017-Aug-07 20:00N 41°42' W 082°36'7 7.5 220 / 31016.1 22.4 26.8
2017-Aug-07 19:00N 41°48' W 082°30'7 7.5 160 / 41016.1 21.4 26.8
2017-Aug-07 18:00N 41°54' W 082°36'9 8.9 140 / 61016.1 22.2 27.4
2017-Aug-07 17:00N 41°54' W 082°48'1313.4
2017-Aug-07 16:00N 41°54' W 083°06'6 6.0 1017.1 20.7 27.0
2017-Aug-07 15:00N 42°00' W 083°06'   350 / 71016.8 21.8 25.9

Dump ship's entire track history